Time;durP1;ratioP1;P1;durP2;ratioP2;P2;SDS_P1;SDS_P2;PMS_P1;PMS_P2;Temp;Humidity;BMP_temperature;BMP_pressure;BME280_temperature;BME280_humidity;BME280_pressure;Samples;Min_cycle;Max_cycle;Signal;HPM_P1;HPM_P2
2024/02/10 00:00:19;;;;;;;2.60;2.13;;;;;;;19.01;52.06;94900.94;5054475;28;20228;-26
2024/02/10 00:02:47;;;;;;;2.53;2.10;;;;;;;19.02;51.95;94894.16;5050974;28;20193;-24
2024/02/10 00:05:15;;;;;;;2.27;2.07;;;;;;;19.02;52.05;94900.09;5054987;28;20259;-24
2024/02/10 00:07:55;;;;;;;2.67;2.30;;;;;;;19.03;52.01;94896.69;5053956;28;20201;-25
2024/02/10 00:10:24;;;;;;;2.93;1.80;;;;;;;19.02;52.13;94887.38;5048132;28;20323;-25
2024/02/10 00:12:54;;;;;;;2.53;2.20;;;;;;;19.01;52.09;94893.31;5054648;28;20193;-24
2024/02/10 00:15:23;;;;;;;3.10;2.00;;;;;;;19.02;52.17;94899.25;5049069;28;20698;-25
2024/02/10 00:17:50;;;;;;;2.83;2.27;;;;;;;19.01;52.17;94897.56;5045976;28;20205;-25
2024/02/10 00:20:20;;;;;;;3.07;2.20;;;;;;;19.00;52.29;94899.25;5041498;28;20227;-24
2024/02/10 00:22:47;;;;;;;2.60;1.90;;;;;;;18.99;52.26;94891.63;5048803;28;20202;-23
2024/02/10 00:25:18;;;;;;;2.37;2.10;;;;;;;19.00;52.33;94890.75;5053767;28;20571;-24
2024/02/10 00:27:46;;;;;;;2.83;2.23;;;;;;;19.00;52.51;94898.41;5047763;28;20262;-25
2024/02/10 00:30:13;;;;;;;2.77;2.30;;;;;;;19.00;52.25;94898.41;5045690;28;20237;-24
2024/02/10 00:32:40;;;;;;;2.70;2.20;;;;;;;19.00;51.98;94899.25;5049195;28;20206;-25
2024/02/10 00:35:07;;;;;;;2.00;1.90;;;;;;;19.02;52.37;94904.34;5039579;28;20590;-24
2024/02/10 00:37:34;;;;;;;2.30;2.10;;;;;;;19.01;52.01;94906.03;5054014;28;20255;-24
2024/02/10 00:40:03;;;;;;;2.27;1.80;;;;;;;19.01;52.22;94905.19;5044371;28;20225;-25
2024/02/10 00:42:31;;;;;;;2.10;1.90;;;;;;;19.02;52.52;94917.94;5059473;28;20213;-25
2024/02/10 00:45:01;;;;;;;2.20;2.00;;;;;;;19.02;52.22;94909.44;5053910;28;20240;-24
2024/02/10 00:47:28;;;;;;;2.17;1.97;;;;;;;19.02;52.17;94899.25;5047363;28;20201;-24
2024/02/10 00:50:01;;;;;;;3.10;2.03;;;;;;;18.98;52.16;94889.94;5053455;28;20232;-24
2024/02/10 00:52:28;;;;;;;2.67;2.47;;;;;;;19.02;52.18;94906.88;5055409;28;20258;-24
2024/02/10 00:54:55;;;;;;;2.30;1.93;;;;;;;19.00;52.31;94899.25;5051239;28;20788;-25
2024/02/10 00:57:23;;;;;;;2.60;2.23;;;;;;;19.00;52.15;94891.63;5053248;28;20200;-24
2024/02/10 00:59:49;;;;;;;2.43;2.00;;;;;;;19.01;52.26;94892.47;5053611;28;20612;-25
2024/02/10 01:02:19;;;;;;;2.27;2.10;;;;;;;19.01;52.29;94898.41;5052095;28;20200;-24
2024/02/10 01:04:49;;;;;;;2.30;2.10;;;;;;;19.00;52.31;94893.31;5034835;28;20626;-24
2024/02/10 01:07:16;;;;;;;2.20;2.00;;;;;;;19.01;52.18;94882.31;5046109;28;20200;-25
2024/02/10 01:09:46;;;;;;;2.93;1.90;;;;;;;18.98;52.17;94867.03;5038593;28;20258;-24
2024/02/10 01:12:16;;;;;;;2.27;2.07;;;;;;;19.03;52.13;94878.03;5050601;28;20208;-24
2024/02/10 01:14:43;;;;;;;2.70;2.10;;;;;;;19.03;52.03;94891.63;5041985;28;20227;-25
2024/02/10 01:17:13;;;;;;;2.23;1.90;;;;;;;19.03;52.08;94880.56;5053201;28;20661;-25
2024/02/10 01:20:01;;;;;;;2.13;1.83;;;;;;;19.02;52.19;94886.53;5048191;28;20208;-25
2024/02/10 01:22:29;;;;;;;2.43;2.20;;;;;;;19.03;52.41;94885.66;5045711;28;20197;-24
2024/02/10 01:24:55;;;;;;;2.40;2.03;;;;;;;19.02;52.56;94905.19;5052706;28;20193;-25
2024/02/10 01:27:26;;;;;;;2.13;1.90;;;;;;;19.01;52.27;94912.84;5042733;28;20201;-25
2024/02/10 01:29:55;;;;;;;2.03;1.83;;;;;;;19.01;52.28;94907.75;5041056;28;20229;-24
2024/02/10 01:32:25;;;;;;;2.20;1.90;;;;;;;19.01;52.18;94900.13;5044768;28;20205;-25
2024/02/10 01:34:53;;;;;;;2.20;2.00;;;;;;;19.00;52.13;94917.06;5055561;28;20591;-25
2024/02/10 01:37:21;;;;;;;2.70;2.13;;;;;;;19.00;52.14;94896.72;5051616;28;20222;-25
2024/02/10 01:39:48;;;;;;;2.60;2.17;;;;;;;19.01;52.14;94895.03;5054375;28;20582;-24
2024/02/10 01:42:18;;;;;;;2.10;1.90;;;;;;;19.00;51.94;94881.44;5053114;28;20232;-24
2024/02/10 01:44:45;;;;;;;2.77;2.30;;;;;;;19.02;52.32;94866.16;5024364;28;20638;-25
2024/02/10 01:47:14;;;;;;;2.67;2.10;;;;;;;19.01;52.26;94851.75;5045190;28;20204;-25
2024/02/10 01:49:44;;;;;;;2.13;1.93;;;;;;;19.03;52.20;94857.66;5042111;28;20283;-25
2024/02/10 01:52:11;;;;;;;3.17;2.10;;;;;;;19.00;52.03;94850.91;5052694;28;20205;-25
2024/02/10 01:54:38;;;;;;;2.27;1.97;;;;;;;19.02;52.25;94851.75;5042092;28;20734;-24
2024/02/10 01:57:06;;;;;;;2.20;2.00;;;;;;;19.02;52.12;94840.72;5052652;28;20284;-25
2024/02/10 01:59:35;;;;;;;2.33;2.00;;;;;;;19.01;52.22;94831.41;5051868;28;20672;-24
2024/02/10 02:02:05;;;;;;;2.23;2.00;;;;;;;19.01;52.17;94834.78;5048527;28;20255;-25
2024/02/10 02:04:35;;;;;;;2.70;2.10;;;;;;;19.00;52.17;94825.47;5043744;28;20337;-24
2024/02/10 02:07:04;;;;;;;2.60;2.07;;;;;;;19.01;52.27;94833.94;5051413;28;20558;-24
2024/02/10 02:09:30;;;;;;;2.03;1.83;;;;;;;18.99;51.69;94818.69;5039161;28;20258;-24
2024/02/10 02:11:57;;;;;;;2.57;2.33;;;;;;;19.00;52.45;94822.06;5057429;28;20707;-25
2024/02/10 02:14:23;;;;;;;2.90;2.40;;;;;;;18.98;52.17;94822.06;5051308;28;20725;-24
2024/02/10 02:16:50;;;;;;;2.13;1.93;;;;;;;19.00;52.21;94817.81;5051701;28;20205;-25
2024/02/10 02:19:17;;;;;;;2.33;2.13;;;;;;;19.01;52.09;94811.03;5054050;28;20196;-24
2024/02/10 02:21:44;;;;;;;1.87;1.77;;;;;;;19.01;52.12;94811.88;5048605;28;20270;-24
2024/02/10 02:24:11;;;;;;;2.10;1.90;;;;;;;19.02;52.01;94802.53;5051794;28;20201;-25
2024/02/10 02:26:37;;;;;;;2.30;2.10;;;;;;;19.03;51.70;94805.09;5051579;28;20215;-24
2024/02/10 02:29:07;;;;;;;2.20;2.00;;;;;;;19.03;52.06;94805.09;5045624;28;20217;-24
2024/02/10 02:31:35;;;;;;;2.20;1.97;;;;;;;19.02;52.12;94800.00;5049316;28;21255;-24
2024/02/10 02:34:04;;;;;;;2.50;2.30;;;;;;;19.02;52.16;94797.47;5052165;28;20204;-22
2024/02/10 02:36:31;;;;;;;2.40;2.13;;;;;;;19.01;52.18;94805.97;5054780;28;20199;-25
2024/02/10 02:39:01;;;;;;;2.10;1.90;;;;;;;19.01;52.37;94814.41;5044076;28;20324;-24
2024/02/10 02:41:28;;;;;;;2.57;2.00;;;;;;;19.01;52.22;94816.13;5056215;28;20232;-24
2024/02/10 02:43:55;;;;;;;2.40;2.13;;;;;;;19.01;52.65;94816.13;5044557;28;20232;-24
2024/02/10 02:46:23;;;;;;;2.10;1.90;;;;;;;19.00;52.16;94822.06;5050886;28;20201;-25
2024/02/10 02:48:50;;;;;;;3.47;2.03;;;;;;;19.00;52.45;94828.00;5046784;28;20197;-24
2024/02/10 02:51:20;;;;;;;2.30;2.10;;;;;;;19.00;52.14;94827.13;5050367;28;20225;-25
2024/02/10 02:53:48;;;;;;;2.20;2.00;;;;;;;19.00;52.06;94825.47;5046001;28;20197;-24
2024/02/10 02:56:17;;;;;;;2.30;2.10;;;;;;;19.00;52.15;94825.47;5047157;28;20224;-23
2024/02/10 02:58:51;;;;;;;2.80;2.10;;;;;;;19.01;52.12;94834.78;5050393;28;20197;-24
2024/02/10 03:01:17;;;;;;;2.20;2.00;;;;;;;19.02;52.46;94839.03;5050643;28;20221;-25
2024/02/10 03:03:50;;;;;;;2.33;2.13;;;;;;;19.02;51.75;94833.09;5049411;28;20208;-24
2024/02/10 03:06:18;;;;;;;2.27;2.00;;;;;;;19.01;52.25;94826.31;5053317;28;20281;-25
2024/02/10 03:08:45;;;;;;;2.10;1.90;;;;;;;19.02;52.31;94822.91;5060233;28;20196;-24
2024/02/10 03:11:17;;;;;;;2.13;1.93;;;;;;;19.00;52.09;94828.00;5056646;28;20725;-25
2024/02/10 03:13:46;;;;;;;2.20;2.00;;;;;;;18.98;52.22;94819.50;5046580;28;20580;-25
2024/02/10 03:16:14;;;;;;;3.53;2.10;;;;;;;18.99;52.42;94826.31;5050724;28;20225;-25
2024/02/10 03:18:45;;;;;;;2.83;2.00;;;;;;;18.99;52.33;94825.47;5050688;28;20215;-25
2024/02/10 03:21:13;;;;;;;2.20;2.00;;;;;;;18.98;52.08;94824.59;5057654;28;20217;-24
2024/02/10 03:23:39;;;;;;;2.57;1.87;;;;;;;18.98;52.35;94828.88;5042695;28;20207;-25
2024/02/10 03:26:06;;;;;;;2.07;1.90;;;;;;;18.98;52.22;94836.50;5051018;28;20335;-24
2024/02/10 03:28:33;;;;;;;2.20;2.00;;;;;;;18.97;52.08;94838.19;5052191;28;20629;-24
2024/02/10 03:31:01;;;;;;;1.90;1.80;;;;;;;18.99;52.21;94840.72;5052961;22;20287;-24
2024/02/10 03:33:32;;;;;;;2.27;2.07;;;;;;;18.94;52.22;94822.94;5010694;28;20214;-25
2024/02/10 03:35:59;;;;;;;2.43;1.80;;;;;;;19.01;52.10;94833.94;5010593;28;20257;-24
2024/02/10 03:38:27;;;;;;;2.10;1.90;;;;;;;19.00;52.34;94829.69;5011158;28;20592;-26
2024/02/10 03:40:53;;;;;;;1.87;1.77;;;;;;;19.00;52.20;94839.88;5011004;28;20275;-24
2024/02/10 03:43:27;;;;;;;2.77;2.00;;;;;;;18.99;52.17;94833.09;5008054;28;20217;-24
2024/02/10 03:45:54;;;;;;;3.43;2.23;;;;;;;18.98;52.25;94832.25;5005787;28;20289;-24
2024/02/10 03:48:20;;;;;;;3.67;2.10;;;;;;;18.99;52.24;94822.91;5007396;28;20206;-24
2024/02/10 03:50:47;;;;;;;2.27;2.03;;;;;;;18.99;52.16;94828.00;5007436;28;20222;-25
2024/02/10 03:53:14;;;;;;;2.17;2.00;;;;;;;18.97;52.19;94815.28;5005502;28;20211;-24
2024/02/10 03:55:41;;;;;;;2.43;2.10;;;;;;;18.98;52.46;94818.69;4999394;28;20229;-24
2024/02/10 03:58:09;;;;;;;2.10;1.90;;;;;;;18.98;52.20;94818.69;4998913;28;20286;-24
2024/02/10 04:00:36;;;;;;;2.33;2.10;;;;;;;18.98;52.50;94818.69;5001088;28;20233;-24
2024/02/10 04:03:04;;;;;;;2.10;1.90;;;;;;;18.98;52.08;94811.88;5004189;28;20289;-25
2024/02/10 04:05:34;;;;;;;2.20;2.00;;;;;;;18.98;52.21;94811.88;5005516;28;20253;-24
2024/02/10 04:08:02;;;;;;;2.57;2.00;;;;;;;19.00;52.20;94811.88;5008561;28;20209;-25
2024/02/10 04:10:29;;;;;;;3.00;2.37;;;;;;;19.00;51.98;94811.88;5009777;28;20230;-24
2024/02/10 04:12:56;;;;;;;2.50;2.10;;;;;;;18.99;52.15;94805.97;5003864;28;20206;-23
2024/02/10 04:15:22;;;;;;;2.20;2.00;;;;;;;19.00;52.18;94807.63;5003395;28;20226;-25
2024/02/10 04:17:53;;;;;;;2.13;1.93;;;;;;;18.99;52.14;94793.22;5010579;28;20248;-25
2024/02/10 04:20:22;;;;;;;2.10;1.90;;;;;;;18.99;52.25;94787.28;5010245;28;20675;-24
2024/02/10 04:22:49;;;;;;;1.97;1.80;;;;;;;18.98;52.32;94783.06;5002108;28;20633;-24
2024/02/10 04:25:16;;;;;;;2.10;2.00;;;;;;;18.98;51.81;94793.25;5008291;28;20709;-25
2024/02/10 04:27:42;;;;;;;1.87;1.70;;;;;;;18.98;52.20;94788.16;5013712;28;20202;-25
2024/02/10 04:30:10;;;;;;;1.90;1.70;;;;;;;18.98;52.11;94793.25;5011243;28;20207;-25
2024/02/10 04:32:46;;;;;;;2.40;2.17;;;;;;;18.98;52.09;94800.88;5010819;28;20207;-25
2024/02/10 04:35:14;;;;;;;2.27;2.03;;;;;;;18.97;52.33;94792.38;5006118;28;20221;-24
2024/02/10 04:37:51;;;;;;;2.30;2.10;;;;;;;18.97;52.16;94792.38;5005143;28;20283;-24
2024/02/10 04:40:18;;;;;;;2.43;2.10;;;;;;;18.97;52.04;94789.84;5006248;28;20206;-24
2024/02/10 04:42:45;;;;;;;2.10;1.97;;;;;;;18.99;52.12;94792.38;5000274;28;20198;-24
2024/02/10 04:45:25;;;;;;;2.00;1.80;;;;;;;19.00;51.98;94794.06;5000092;28;20202;-24
2024/02/10 04:47:52;;;;;;;2.37;2.07;;;;;;;18.99;52.07;94788.16;5016398;28;20264;-24
2024/02/10 04:50:22;;;;;;;2.47;2.03;;;;;;;18.99;52.21;94803.41;5007610;28;20209;-24
2024/02/10 04:52:48;;;;;;;2.40;1.90;;;;;;;18.99;52.19;94802.56;4994624;28;20202;-24
2024/02/10 04:55:21;;;;;;;2.20;2.00;;;;;;;18.99;52.14;94805.97;5004433;28;20307;-24
2024/02/10 04:57:47;;;;;;;3.27;2.13;;;;;;;18.99;52.30;94810.19;5001899;28;20736;-24
2024/02/10 05:00:15;;;;;;;2.13;2.00;;;;;;;18.98;52.20;94803.41;5007301;28;20657;-24
2024/02/10 05:02:43;;;;;;;2.10;2.00;;;;;;;18.96;52.18;94805.97;5013438;28;20221;-25
2024/02/10 05:05:13;;;;;;;2.10;1.90;;;;;;;18.97;52.30;94802.56;5013372;28;20202;-24
2024/02/10 05:07:42;;;;;;;2.37;2.17;;;;;;;18.90;52.11;94795.81;5004344;28;20206;-23
2024/02/10 05:10:14;;;;;;;2.17;1.97;;;;;;;18.96;52.14;94805.13;5011185;28;20647;-25
2024/02/10 05:12:46;;;;;;;2.40;2.20;;;;;;;18.97;52.09;94810.19;5012646;28;20265;-24
2024/02/10 05:15:18;;;;;;;1.90;1.80;;;;;;;18.98;52.12;94813.59;5012890;28;20229;-24
2024/02/10 05:17:49;;;;;;;2.90;2.13;;;;;;;18.99;52.12;94820.38;5008366;28;20662;-24
2024/02/10 05:20:19;;;;;;;2.03;1.93;;;;;;;19.00;52.11;94816.97;5007908;28;20210;-24
2024/02/10 05:22:48;;;;;;;2.00;1.80;;;;;;;19.00;51.95;94811.88;5011688;28;20620;-24
2024/02/10 05:25:16;;;;;;;2.30;2.10;;;;;;;18.99;52.12;94815.28;5004434;28;20214;-24
2024/02/10 05:27:45;;;;;;;2.80;2.23;;;;;;;18.98;52.22;94813.59;5012981;28;20815;-24
2024/02/10 05:30:19;;;;;;;2.00;1.90;;;;;;;18.99;52.24;94815.28;5012681;28;20210;-24
2024/02/10 05:32:45;;;;;;;2.50;2.27;;;;;;;18.98;52.33;94824.59;5012145;28;20203;-25
2024/02/10 05:35:18;;;;;;;3.13;2.03;;;;;;;18.97;52.28;94812.75;5008841;28;20701;-24
2024/02/10 05:37:48;;;;;;;2.10;2.00;;;;;;;18.97;52.18;94815.28;5011288;28;20198;-24
2024/02/10 05:40:15;;;;;;;3.00;2.00;;;;;;;18.96;52.14;94818.69;5011797;28;20217;-24
2024/02/10 05:42:45;;;;;;;2.07;1.90;;;;;;;18.96;52.05;94818.69;5001287;28;20268;-24
2024/02/10 05:45:17;;;;;;;2.23;2.03;;;;;;;18.96;52.30;94823.78;5001697;28;20652;-25
2024/02/10 05:47:49;;;;;;;2.20;2.00;;;;;;;18.97;52.36;94824.59;5006577;28;20727;-23
2024/02/10 05:50:20;;;;;;;2.23;2.03;;;;;;;18.97;52.06;94817.84;5008832;28;20210;-24
2024/02/10 05:52:51;;;;;;;2.40;2.20;;;;;;;18.98;52.16;94816.16;5002288;28;20214;-24
2024/02/10 05:55:25;;;;;;;2.20;2.00;;;;;;;18.99;52.06;94817.81;5003791;28;20232;-24
2024/02/10 05:57:58;;;;;;;2.10;1.90;;;;;;;18.99;52.19;94816.13;5005273;28;20209;-25
2024/02/10 06:00:26;;;;;;;2.97;2.00;;;;;;;18.91;52.18;94802.59;5012071;28;20593;-24
2024/02/10 06:02:53;;;;;;;2.50;2.00;;;;;;;18.98;52.16;94816.97;5003788;28;20297;-25
2024/02/10 06:05:21;;;;;;;2.10;1.90;;;;;;;18.97;52.16;94807.66;5004382;28;20201;-25
2024/02/10 06:07:54;;;;;;;2.00;1.90;;;;;;;18.97;51.86;94805.09;5012801;28;20700;-25
2024/02/10 06:10:21;;;;;;;2.43;2.23;;;;;;;18.97;51.96;94806.78;5012239;28;20245;-25
2024/02/10 06:12:51;;;;;;;2.00;1.90;;;;;;;18.97;52.15;94816.97;5003478;28;20293;-24
2024/02/10 06:15:18;;;;;;;2.47;2.10;;;;;;;18.91;52.19;94799.19;5007931;28;20292;-24
2024/02/10 06:17:48;;;;;;;2.20;2.00;;;;;;;18.95;52.21;94804.25;5009432;28;23798;-25
2024/02/10 06:20:15;;;;;;;2.30;2.10;;;;;;;18.95;52.16;94806.81;5007530;28;20276;-24
2024/02/10 06:22:48;;;;;;;2.00;1.90;;;;;;;18.97;52.12;94801.72;5011960;28;20210;-25
2024/02/10 06:25:24;;;;;;;1.77;1.67;;;;;;;18.96;52.44;94800.88;5012053;28;20286;-24
2024/02/10 06:27:55;;;;;;;1.97;1.87;;;;;;;18.98;52.24;94811.06;5011185;28;20672;-24
2024/02/10 06:30:24;;;;;;;1.97;1.83;;;;;;;18.98;52.07;94818.69;5012181;28;20218;-25
2024/02/10 06:32:51;;;;;;;2.00;1.83;;;;;;;18.98;51.98;94806.78;5000394;28;20206;-25
2024/02/10 06:35:19;;;;;;;2.30;2.10;;;;;;;18.97;52.17;94805.09;5000425;28;20223;-24
2024/02/10 06:37:49;;;;;;;3.17;2.20;;;;;;;18.97;52.05;94797.47;5011059;28;20210;-25
2024/02/10 06:40:16;;;;;;;1.93;1.77;;;;;;;18.97;52.14;94802.56;5004246;28;20268;-25
2024/02/10 06:42:46;;;;;;;2.30;2.10;;;;;;;18.98;52.13;94800.88;5008429;28;20217;-24
2024/02/10 06:45:15;;;;;;;2.27;2.07;;;;;;;18.97;52.31;94805.09;5005316;28;20673;-25
2024/02/10 06:47:45;;;;;;;2.10;1.90;;;;;;;18.96;52.22;94800.88;5011582;28;20237;-24
2024/02/10 06:50:14;;;;;;;1.80;1.70;;;;;;;18.97;52.19;94804.25;5004390;28;20644;-24
2024/02/10 06:52:41;;;;;;;2.00;1.90;;;;;;;18.89;52.31;94791.56;5004490;28;20204;-25
2024/02/10 06:55:10;;;;;;;1.90;1.80;;;;;;;18.96;52.36;94805.13;5011381;28;20665;-24
2024/02/10 06:57:41;;;;;;;2.20;1.90;;;;;;;18.95;52.29;94814.44;5003883;28;20210;-25
2024/02/10 07:00:13;;;;;;;2.03;1.93;;;;;;;18.97;52.08;94811.88;4996486;28;20230;-24
2024/02/10 07:02:42;;;;;;;1.97;1.87;;;;;;;18.97;52.13;94802.56;5002995;28;20665;-24
2024/02/10 07:05:12;;;;;;;2.57;2.20;;;;;;;18.98;51.89;94808.50;5005845;28;20735;-25
2024/02/10 07:07:41;;;;;;;2.10;1.90;;;;;;;18.99;52.07;94810.19;5003687;28;20210;-25
2024/02/10 07:10:22;;;;;;;2.57;2.20;;;;;;;18.98;52.09;94806.78;5010933;28;20280;-24
2024/02/10 07:12:50;;;;;;;1.80;1.60;;;;;;;18.98;52.15;94803.41;5004225;28;20199;-24
2024/02/10 07:15:18;;;;;;;2.47;2.27;;;;;;;18.99;52.08;94822.91;5004221;28;20205;-25
2024/02/10 07:17:49;;;;;;;2.10;1.93;;;;;;;18.98;52.13;94800.88;5003698;28;20226;-25
2024/02/10 07:20:20;;;;;;;2.00;1.90;;;;;;;18.98;52.11;94803.41;5011403;28;20292;-25
2024/02/10 07:22:54;;;;;;;2.20;2.00;;;;;;;18.97;52.25;94817.84;5007392;28;20293;-24
2024/02/10 07:25:22;;;;;;;2.10;2.00;;;;;;;18.98;51.65;94823.78;5004805;28;20226;-25
2024/02/10 07:27:50;;;;;;;2.50;2.27;;;;;;;18.98;52.07;94833.97;5002998;28;20579;-25
2024/02/10 07:30:17;;;;;;;2.57;2.13;;;;;;;18.97;51.86;94837.34;5009032;28;20206;-24
2024/02/10 07:32:44;;;;;;;1.93;1.83;;;;;;;18.97;51.91;94837.34;5011050;28;20199;-24
2024/02/10 07:35:14;;;;;;;2.23;1.90;;;;;;;18.98;52.04;94831.41;5005305;28;20198;-25
2024/02/10 07:37:40;;;;;;;2.73;2.53;;;;;;;18.96;51.84;94833.97;5008875;28;20298;-25
2024/02/10 07:40:07;;;;;;;2.80;2.60;;;;;;;18.96;51.80;94833.09;5011244;28;20552;-24
2024/02/10 07:42:37;;;;;;;3.60;3.30;;;;;;;18.95;51.50;94832.25;5008738;28;20210;-24
2024/02/10 07:45:04;;;;;;;4.07;3.67;;;;;;;18.94;51.32;94835.66;5005102;28;20713;-25
2024/02/10 07:47:30;;;;;;;3.67;3.37;;;;;;;18.92;51.34;94829.72;5010096;28;20198;-23
2024/02/10 07:50:03;;;;;;;4.70;4.00;;;;;;;18.91;51.40;94830.56;5010145;28;20202;-24
2024/02/10 07:52:30;;;;;;;4.10;3.70;;;;;;;18.90;51.41;94823.81;5010910;28;20222;-24
2024/02/10 07:54:58;;;;;;;3.90;3.53;;;;;;;18.90;51.76;94831.44;5007114;28;20580;-24
2024/02/10 07:57:25;;;;;;;4.33;3.93;;;;;;;18.89;51.61;94836.53;5011338;28;20232;-25
2024/02/10 07:59:55;;;;;;;4.10;3.70;;;;;;;18.89;51.60;94844.16;5014643;28;20595;-24
2024/02/10 08:02:25;;;;;;;4.33;3.93;;;;;;;18.89;51.83;94836.53;5014281;28;20218;-24
2024/02/10 08:04:56;;;;;;;4.30;3.40;;;;;;;18.90;51.57;94838.22;5010741;28;20203;-24
2024/02/10 08:07:27;;;;;;;4.00;3.60;;;;;;;18.90;51.80;94841.63;5012070;28;20194;-24
2024/02/10 08:09:54;;;;;;;4.17;3.63;;;;;;;18.91;51.83;94847.53;5012764;28;20198;-25
2024/02/10 08:12:23;;;;;;;3.67;3.33;;;;;;;18.92;51.97;94847.53;5014370;28;20229;-25
2024/02/10 08:14:50;;;;;;;3.57;3.27;;;;;;;18.93;50.88;94841.59;5006017;28;20223;-25
2024/02/10 08:17:17;;;;;;;4.57;3.60;;;;;;;18.92;51.39;94839.06;5014165;28;20218;-24
2024/02/10 08:19:44;;;;;;;4.00;3.60;;;;;;;18.92;51.29;94829.72;5013002;28;20203;-24
2024/02/10 08:22:11;;;;;;;3.47;3.07;;;;;;;18.92;51.59;94823.81;5011238;28;20278;-25
2024/02/10 08:24:40;;;;;;;5.30;3.37;;;;;;;18.92;51.82;94823.81;5013545;28;20760;-25
2024/02/10 08:27:10;;;;;;;3.30;3.00;;;;;;;18.91;51.95;94828.03;5011320;28;20195;-24
2024/02/10 08:29:39;;;;;;;4.80;3.73;;;;;;;18.93;51.73;94826.34;5013317;28;20236;-24
2024/02/10 08:32:08;;;;;;;3.50;3.20;;;;;;;18.94;51.92;94811.91;5000813;28;20713;-24
2024/02/10 08:34:38;;;;;;;3.97;3.57;;;;;;;18.93;51.31;94820.41;5006994;28;20205;-23
2024/02/10 08:37:04;;;;;;;4.03;3.63;;;;;;;18.94;51.90;94825.47;5013386;28;20225;-23
2024/02/10 08:39:31;;;;;;;3.10;2.90;;;;;;;18.96;51.69;94825.47;5012179;28;20233;-25
2024/02/10 08:42:01;;;;;;;4.50;3.10;;;;;;;18.95;51.82;94824.63;5011155;28;20294;-24
2024/02/10 08:44:28;;;;;;;5.17;3.30;;;;;;;18.96;51.89;94822.94;5012697;28;20218;-24
2024/02/10 08:46:54;;;;;;;3.40;3.10;;;;;;;18.96;52.05;94821.25;5011847;28;20656;-24
2024/02/10 08:49:21;;;;;;;3.80;3.23;;;;;;;18.95;51.98;94819.53;5013101;28;20220;-23
2024/02/10 08:51:49;;;;;;;3.83;3.30;;;;;;;18.95;51.99;94819.53;5015871;28;20262;-25
2024/02/10 08:54:35;;;;;;;3.70;3.40;;;;;;;18.95;51.90;94833.97;5015728;28;20407;-24
2024/02/10 08:57:02;;;;;;;3.47;3.17;;;;;;;18.96;52.06;94838.19;5014025;28;20241;-24
2024/02/10 08:59:31;;;;;;;3.77;3.30;;;;;;;18.94;51.91;94835.66;5014496;28;20234;-24
2024/02/10 09:02:00;;;;;;;3.20;2.90;;;;;;;18.94;52.19;94824.63;5012542;28;20225;-25
2024/02/10 09:04:29;;;;;;;3.27;3.00;;;;;;;18.94;52.13;94828.03;5011185;28;20288;-25
2024/02/10 09:06:55;;;;;;;4.03;2.90;;;;;;;18.95;52.13;94829.69;5011213;28;20206;-24
2024/02/10 09:09:23;;;;;;;4.20;3.20;;;;;;;18.96;52.34;94830.56;5010948;28;20221;-24
2024/02/10 09:11:50;;;;;;;3.63;3.33;;;;;;;18.96;52.15;94821.25;5012115;28;20323;-24
2024/02/10 09:14:16;;;;;;;3.17;2.87;;;;;;;18.97;51.91;94827.16;5010717;28;20206;-25
2024/02/10 09:16:46;;;;;;;3.63;3.07;;;;;;;18.96;52.06;94816.16;5011762;28;20291;-24
2024/02/10 09:19:14;;;;;;;3.23;2.93;;;;;;;18.96;52.19;94822.94;5013932;28;20241;-23
2024/02/10 09:21:41;;;;;;;3.80;2.93;;;;;;;18.97;51.98;94829.69;5014027;28;20283;-24
2024/02/10 09:24:13;;;;;;;2.90;2.70;;;;;;;18.97;51.79;94832.25;5012054;28;20262;-24
2024/02/10 09:26:40;;;;;;;3.13;2.73;;;;;;;18.97;52.00;94857.69;5012789;28;20205;-24
2024/02/10 09:29:07;;;;;;;3.07;2.77;;;;;;;18.96;51.96;94831.41;5013987;28;20206;-24
2024/02/10 09:31:33;;;;;;;3.77;2.83;;;;;;;18.96;51.56;94826.34;5010511;28;20245;-23
2024/02/10 09:34:04;;;;;;;3.37;2.90;;;;;;;18.96;51.82;94841.59;5010952;28;20344;-24
2024/02/10 09:36:32;;;;;;;4.00;2.77;;;;;;;18.97;51.95;94855.16;5012065;28;20312;-24
2024/02/10 09:39:03;;;;;;;4.10;2.70;;;;;;;18.97;51.68;94853.47;5012764;28;20205;-24
2024/02/10 09:41:29;;;;;;;2.90;2.60;;;;;;;18.97;51.75;94848.38;5015115;28;20229;-24
2024/02/10 09:43:56;;;;;;;4.13;3.03;;;;;;;18.98;51.93;94850.06;5013239;28;20711;-23
2024/02/10 09:46:23;;;;;;;3.10;2.80;;;;;;;19.00;51.39;94842.41;5011790;28;20222;-24
2024/02/10 09:48:51;;;;;;;2.90;2.70;;;;;;;19.00;51.95;94844.97;4994917;28;20213;-25
2024/02/10 09:51:18;;;;;;;3.10;2.80;;;;;;;19.00;51.65;94845.81;5011789;28;20230;-24
2024/02/10 09:53:45;;;;;;;2.90;2.70;;;;;;;19.00;51.71;94842.41;5012828;28;20581;-24
2024/02/10 09:56:15;;;;;;;3.10;2.80;;;;;;;19.00;51.86;94839.88;5012289;28;20308;-24
2024/02/10 09:58:44;;;;;;;2.67;2.47;;;;;;;18.99;51.90;94845.81;5013547;28;20202;-23
2024/02/10 10:01:11;;;;;;;2.70;2.50;;;;;;;18.98;51.82;94850.06;5013166;28;20236;-24
2024/02/10 10:03:37;;;;;;;3.13;2.93;;;;;;;18.98;52.38;94861.94;5010534;28;20575;-24
2024/02/10 10:06:09;;;;;;;2.80;2.60;;;;;;;18.98;51.83;94861.94;5011106;28;20218;-24
2024/02/10 10:08:38;;;;;;;2.90;2.70;;;;;;;18.97;51.69;94856.00;5010494;28;20478;-24
2024/02/10 10:11:06;;;;;;;2.73;2.53;;;;;;;18.97;51.80;94850.91;5012973;28;20771;-24
2024/02/10 10:13:34;;;;;;;3.40;2.90;;;;;;;18.99;51.76;94845.81;5009747;28;20632;-23
2024/02/10 10:16:05;;;;;;;2.90;2.70;;;;;;;18.99;51.77;94840.72;5009367;28;20205;-23
2024/02/10 10:18:33;;;;;;;2.80;2.40;;;;;;;18.99;51.72;94839.03;5011983;28;20234;-24
2024/02/10 10:21:00;;;;;;;2.93;2.60;;;;;;;18.95;51.79;94827.16;5009150;28;20647;-24
2024/02/10 10:23:31;;;;;;;2.77;2.57;;;;;;;18.98;51.71;94832.25;5009046;28;20247;-25
2024/02/10 10:25:57;;;;;;;3.63;2.97;;;;;;;18.98;51.82;94833.97;5010306;28;20216;-24
2024/02/10 10:28:24;;;;;;;2.60;2.40;;;;;;;18.98;51.80;94823.78;5015090;28;20213;-24
2024/02/10 10:30:50;;;;;;;2.80;2.57;;;;;;;18.97;51.83;94824.59;5011867;28;20229;-23
2024/02/10 10:33:18;;;;;;;2.73;2.53;;;;;;;18.97;51.94;94825.47;5009675;28;20206;-23
2024/02/10 10:35:45;;;;;;;2.80;2.60;;;;;;;18.97;51.73;94822.06;5011771;28;20664;-24
2024/02/10 10:38:12;;;;;;;2.57;2.37;;;;;;;18.96;51.89;94817.84;5011161;28;20229;-24
2024/02/10 10:40:38;;;;;;;3.10;2.77;;;;;;;18.95;51.81;94811.06;5012102;28;20611;-24
2024/02/10 10:43:05;;;;;;;3.90;2.70;;;;;;;18.97;51.92;94811.88;5011489;28;20206;-24
2024/02/10 10:45:32;;;;;;;2.57;2.37;;;;;;;18.97;51.80;94811.88;5012409;28;20225;-23
2024/02/10 10:48:02;;;;;;;2.70;2.50;;;;;;;18.97;51.73;94799.16;4993929;28;20215;-25
2024/02/10 10:50:30;;;;;;;2.67;2.47;;;;;;;18.97;51.71;94796.63;4994029;28;20673;-24
2024/02/10 10:53:06;;;;;;;2.57;2.37;;;;;;;18.97;51.52;94800.03;5008075;28;20272;-23
2024/02/10 10:55:34;;;;;;;2.60;2.40;;;;;;;18.98;51.89;94791.53;5011325;28;21038;-24
2024/02/10 10:58:04;;;;;;;2.90;2.43;;;;;;;18.97;51.79;94786.44;4976876;28;20218;-24
2024/02/10 11:00:32;;;;;;;2.60;2.40;;;;;;;18.98;51.78;94790.69;5010604;28;20638;-24
2024/02/10 11:02:58;;;;;;;2.60;2.40;;;;;;;18.97;51.74;94768.63;5030644;22;20229;-25
2024/02/10 11:05:26;;;;;;;2.63;2.43;;;;;;;18.98;51.75;94768.63;5052420;28;20196;-24
2024/02/10 11:08:02;;;;;;;2.67;2.47;;;;;;;18.98;51.92;94762.72;5039206;28;20204;-25
2024/02/10 11:10:44;;;;;;;3.00;2.70;;;;;;;18.99;51.85;94746.56;5043757;28;20204;-25
2024/02/10 11:13:20;;;;;;;3.50;2.50;;;;;;;18.99;51.81;94738.94;5050743;28;20232;-26
2024/02/10 11:15:59;;;;;;;4.03;2.93;;;;;;;18.99;51.88;94739.78;5042429;28;20212;-26
2024/02/10 11:18:26;;;;;;;3.40;2.77;;;;;;;18.99;51.52;94744.88;5046158;28;20263;-25
2024/02/10 11:20:55;;;;;;;3.00;2.77;;;;;;;19.00;51.60;94728.75;5046040;28;20201;-25
2024/02/10 11:23:22;;;;;;;4.63;2.90;;;;;;;19.01;51.71;94727.06;5042585;28;20291;-25
2024/02/10 11:25:52;;;;;;;4.17;2.80;;;;;;;19.02;51.69;94723.66;5041649;28;20241;-25
2024/02/10 11:28:22;;;;;;;3.30;2.87;;;;;;;19.00;51.66;94718.56;5044032;28;20656;-25
2024/02/10 11:30:49;;;;;;;4.97;3.20;;;;;;;19.01;51.85;94714.34;5046628;28;20196;-25
2024/02/10 11:33:18;;;;;;;4.43;2.90;;;;;;;19.00;51.66;94707.53;5042471;28;20231;-26
2024/02/10 11:35:46;;;;;;;3.83;2.60;;;;;;;18.99;51.86;94710.94;5043108;28;20663;-25
2024/02/10 11:38:14;;;;;;;3.57;2.80;;;;;;;18.98;51.72;94701.63;5041184;28;20221;-25
2024/02/10 11:40:40;;;;;;;4.27;2.97;;;;;;;18.94;51.88;94693.16;5048576;28;20226;-24